| time (UTC) | temp F | wind direction | speed knots | gust knots | rain 1hr in | rain 24hr in | rain mn in | humidity % | barometer mb |
| 20260504030755 | 44 | 60 | 0.9 | 0.9 | 0.00 | 0.00 | 0.00 | 77 | 977.3 |
| 20260504025255 | 44 | 90 | 0.9 | 0.9 | 0.00 | 0.00 | 0.00 | 77 | 977.3 |
| 20260504024255 | 46 | 82 | 0.0 | 0.0 | 0.00 | 0.00 | 0.00 | 75 | 977.0 |
| 20260504023755 | 46 | 90 | 0.0 | 0.0 | 0.00 | 0.00 | 0.00 | 73 | 977.3 |
| 20260504022756 | 47 | 160 | 0.0 | 0.0 | 0.00 | 0.00 | 0.00 | 69 | 977.3 |
| 20260504020256 | 50 | 159 | 1.7 | 1.7 | 0.00 | 0.00 | 0.00 | 60 | 977.3 |
| 20260504015256 | 51 | 151 | 2.6 | 2.6 | 0.00 | 0.00 | 0.00 | 58 | 977.3 |
| 20260504014256 | 51 | 166 | 1.7 | 1.7 | 0.00 | 0.00 | 0.00 | 56 | 977.3 |
| 20260504011755 | 53 | 173 | 1.7 | 1.7 | 0.00 | 0.00 | 0.00 | 53 | 977.3 |
| 20260504010756 | 53 | 175 | 0.9 | 0.9 | 0.00 | 0.00 | 0.00 | 52 | 977.3 |
| 20260504010255 | 53 | 163 | 1.7 | 1.7 | 0.00 | 0.00 | 0.00 | 52 | 977.3 |
| 20260504004756 | 55 | 170 | 1.7 | 1.7 | 0.00 | 0.00 | 0.00 | 50 | 977.0 |
| 20260504003255 | 55 | 194 | 1.7 | 1.7 | 0.00 | 0.00 | 0.00 | 49 | 977.0 |
| 20260504001256 | 56 | 212 | 1.7 | 1.7 | 0.00 | 0.00 | 0.00 | 48 | 977.0 |
| 20260504000256 | 56 | 171 | 1.7 | 1.7 | 0.00 | 0.00 | 0.00 | 47 | 977.0 |
| 20260503235256 | 56 | 188 | 1.7 | 1.7 | 0.00 | 0.00 | 0.00 | 47 | 977.3 |
| 20260503234255 | 56 | 146 | 2.6 | 2.6 | 0.00 | 0.00 | 0.00 | 46 | 977.3 |
| 20260503233255 | 57 | 238 | 2.6 | 2.6 | 0.00 | 0.00 | 0.00 | 45 | 977.3 |
| 20260503232756 | 57 | 214 | 1.7 | 1.7 | 0.00 | 0.00 | 0.00 | 46 | 977.3 |
| 20260503231756 | 57 | 213 | 2.6 | 2.6 | 0.00 | 0.00 | 0.00 | 44 | 977.0 |
| 20260503230255 | 57 | 168 | 1.7 | 1.7 | 0.00 | 0.00 | 0.00 | 46 | 977.0 |
| 20260503224755 | 58 | 192 | 2.6 | 2.6 | 0.00 | 0.00 | 0.00 | 44 | 977.0 |
| 20260503223755 | 58 | 164 | 2.6 | 2.6 | 0.00 | 0.00 | 0.00 | 44 | 977.0 |
| 20260503222256 | 58 | 161 | 2.6 | 2.6 | 0.00 | 0.00 | 0.00 | 42 | 977.0 |
| 20260503221756 | 59 | 221 | 2.6 | 2.6 | 0.00 | 0.00 | 0.00 | 42 | 977.0 |
| 20260503221255 | 60 | 248 | 2.6 | 2.6 | 0.00 | 0.00 | 0.00 | 40 | 977.3 |
| 20260503215256 | 59 | 257 | 3.5 | 3.5 | 0.00 | 0.00 | 0.00 | 40 | 977.0 |
| 20260503214255 | 61 | 270 | 3.5 | 3.5 | 0.00 | 0.00 | 0.00 | 41 | 977.0 |
| 20260503212756 | 60 | 236 | 3.5 | 3.5 | 0.00 | 0.00 | 0.00 | 40 | 977.0 |
| 20260503211255 | 58 | 185 | 3.5 | 3.5 | 0.00 | 0.00 | 0.00 | 42 | 977.3 |
| 20260503210256 | 59 | 255 | 4.3 | 4.3 | 0.00 | 0.00 | 0.00 | 39 | 977.0 |
| 20260503202255 | 59 | 253 | 3.5 | 3.5 | 0.00 | 0.00 | 0.00 | 40 | 977.3 |
| 20260503201756 | 57 | 230 | 3.5 | 3.5 | 0.00 | 0.00 | 0.00 | 42 | 977.3 |
| 20260503200755 | 59 | 248 | 3.5 | 3.5 | 0.00 | 0.00 | 0.00 | 41 | 977.7 |
| 20260503191756 | 56 | 252 | 3.5 | 3.5 | 0.00 | 0.00 | 0.00 | 42 | 978.3 |
| 20260503190256 | 56 | 135 | 1.7 | 1.7 | 0.00 | 0.00 | 0.00 | 44 | 978.3 |
| 20260503184756 | 56 | 265 | 2.6 | 2.6 | 0.00 | 0.00 | 0.00 | 44 | 978.7 |
| 20260503183756 | 56 | 303 | 1.7 | 1.7 | 0.00 | 0.00 | 0.00 | 44 | 978.7 |
| 20260503181756 | 57 | 270 | 2.6 | 2.6 | 0.00 | 0.00 | 0.00 | 44 | 979.0 |
| 20260503181256 | 54 | 236 | 2.6 | 2.6 | 0.00 | 0.00 | 0.00 | 45 | 979.0 |
| 20260503180256 | 55 | 267 | 2.6 | 2.6 | 0.00 | 0.00 | 0.00 | 46 | 979.0 |
| 20260503175256 | 55 | 309 | 2.6 | 2.6 | 0.00 | 0.00 | 0.00 | 46 | 979.3 |
| 20260503174256 | 56 | 249 | 3.5 | 3.5 | 0.00 | 0.00 | 0.00 | 43 | 979.3 |
| 20260503173756 | 56 | 225 | 2.6 | 2.6 | 0.00 | 0.00 | 0.00 | 45 | 979.3 |
| 20260503172757 | 55 | 180 | 2.6 | 2.6 | 0.00 | 0.00 | 0.00 | 46 | 979.7 |
| 20260503171756 | 56 | 166 | 2.6 | 2.6 | 0.00 | 0.00 | 0.00 | 46 | 979.7 |